Time;durP1;ratioP1;P1;durP2;ratioP2;P2;SDS_P1;SDS_P2;PMS_P1;PMS_P2;Temp;Humidity;BMP_temperature;BMP_pressure;BME280_temperature;BME280_humidity;BME280_pressure;Samples;Min_cycle;Max_cycle;Signal;HPM_P1;HPM_P2
2022/02/02 00:00:18;;;;;;;;;;;8.40;99.90;;;;;;8390306;28;19968;-73
2022/02/02 00:04:24;;;;;;;;;;;8.40;99.90;;;;;;8389301;28;19963;-73
2022/02/02 00:08:32;;;;;;;;;;;8.40;99.90;;;;;;8390470;28;19991;-73
2022/02/02 00:12:59;;;;;;;;;;;8.50;99.90;;;;;;8393089;28;19924;-73
2022/02/02 00:21:05;;;;;;;;;;;8.50;99.90;;;;;;8390095;28;19971;-72
2022/02/02 00:25:34;;;;;;;;;;;8.50;99.90;;;;;;8388855;28;19940;-73
2022/02/02 00:29:43;;;;;;;;;;;8.50;99.90;;;;;;8388432;28;19925;-73
2022/02/02 00:33:51;;;;;;;;;;;8.50;99.90;;;;;;8391819;28;19928;-73
2022/02/02 00:37:53;;;;;;;;;;;8.50;99.90;;;;;;8391776;28;19964;-73
2022/02/02 00:41:56;;;;;;;;;;;8.50;99.90;;;;;;8375359;28;20447;-73
2022/02/02 00:45:58;;;;;;;;;;;8.50;99.90;;;;;;8386220;28;19970;-73
2022/02/02 00:49:59;;;;;;;;;;;8.60;99.90;;;;;;8384820;28;19939;-73
2022/02/02 00:54:01;;;;;;;;;;;8.50;99.90;;;;;;8389811;28;21484;-73
2022/02/02 00:58:03;;;;;;;;;;;8.50;99.90;;;;;;8386389;28;20067;-73
2022/02/02 01:02:10;;;;;;;;;;;8.40;99.90;;;;;;8386386;28;19991;-73
2022/02/02 01:06:16;;;;;;;;;;;8.40;99.90;;;;;;8392212;28;19940;-73
2022/02/02 01:10:25;;;;;;;;;;;8.40;99.90;;;;;;8390659;28;20333;-73
2022/02/02 01:19:25;;;;;;;;;;;8.40;99.90;;;;;;8389803;28;19924;-73
2022/02/02 01:27:50;;;;;;;;;;;8.40;99.90;;;;;;8394418;28;20039;-73
2022/02/02 01:31:51;;;;;;;;;;;8.40;99.90;;;;;;8377446;28;20031;-73
2022/02/02 01:35:53;;;;;;;;;;;8.30;99.90;;;;;;8393150;28;19924;-74
2022/02/02 01:40:08;;;;;;;;;;;8.30;99.90;;;;;;8392401;28;20011;-73
2022/02/02 01:44:23;;;;;;;;;;;8.30;99.90;;;;;;8375487;28;19963;-73
2022/02/02 01:48:34;;;;;;;;;;;8.30;99.90;;;;;;8403374;28;20314;-73
2022/02/02 01:57:02;;;;;;;;;;;8.20;99.90;;;;;;8394425;28;20423;-73
2022/02/02 02:01:04;;;;;;;;;;;8.10;99.90;;;;;;8386501;28;19968;-73
2022/02/02 02:05:06;;;;;;;;;;;8.10;99.90;;;;;;8375307;28;19939;-73
2022/02/02 02:09:08;;;;;;;;;;;8.10;99.90;;;;;;8385373;28;20047;-72
2022/02/02 02:13:17;;;;;;;;;;;8.10;99.90;;;;;;8394209;28;19964;-73
2022/02/02 02:17:21;;;;;;;;;;;8.10;99.90;;;;;;8393985;28;19932;-73
2022/02/02 02:21:25;;;;;;;;;;;8.20;99.90;;;;;;8373317;28;19932;-73
2022/02/02 02:25:29;;;;;;;;;;;8.20;99.90;;;;;;8389692;28;20007;-73
2022/02/02 03:00:01;;;;;;;;;;;8.30;99.90;;;;;;8395305;28;19975;-73
2022/02/02 03:30:10;;;;;;;;;;;8.40;99.90;;;;;;8388757;28;19959;-73
2022/02/02 03:51:43;;;;;;;;;;;8.40;99.90;;;;;;8389964;28;19928;-73
2022/02/02 03:56:27;;;;;;;;;;;8.50;99.90;;;;;;8384765;28;19925;-73
2022/02/02 04:05:05;;;;;;;;;;;8.40;99.90;;;;;;8385449;28;19976;-73
2022/02/02 04:09:07;;;;;;;;;;;8.40;99.90;;;;;;8391333;28;19971;-73
2022/02/02 04:55:46;;;;;;;;;;;8.40;99.90;;;;;;8389545;28;19947;-73
2022/02/02 05:08:10;;;;;;;;;;;8.40;99.90;;;;;;8387803;28;20280;-73
2022/02/02 05:13:03;;;;;;;;;;;8.40;99.90;;;;;;8387692;28;19932;-73
2022/02/02 05:17:06;;;;;;;;;;;8.30;99.90;;;;;;8385483;28;20376;-73
2022/02/02 05:51:48;;;;;;;;;;;8.20;99.90;;;;;;8380860;28;20415;-73
2022/02/02 05:55:51;;;;;;;;;;;8.20;99.90;;;;;;8402103;28;19964;-73
2022/02/02 05:59:57;;;;;;;;;;;8.20;99.90;;;;;;8363136;28;19936;-73
2022/02/02 06:03:59;;;;;;;;;;;8.20;99.90;;;;;;8370760;28;19925;-73
2022/02/02 06:08:02;;;;;;;;;;;8.20;99.90;;;;;;8386024;28;20036;-73
2022/02/02 06:12:04;;;;;;;;;;;8.20;99.90;;;;;;8386104;28;20026;-73
2022/02/02 06:16:07;;;;;;;;;;;8.10;99.90;;;;;;8387762;28;19975;-73
2022/02/02 06:20:09;;;;;;;;;;;8.10;99.90;;;;;;8365671;28;20364;-73
2022/02/02 06:24:10;;;;;;;;;;;8.10;99.90;;;;;;8371232;28;20023;-73
2022/02/02 06:28:13;;;;;;;;;;;8.10;99.90;;;;;;8378233;28;19939;-73
2022/02/02 06:32:15;;;;;;;;;;;8.00;99.90;;;;;;8372097;28;20096;-73
2022/02/02 06:36:17;;;;;;;;;;;7.90;99.90;;;;;;8368982;28;20340;-73
2022/02/02 06:40:19;;;;;;;;;;;7.90;99.90;;;;;;8361768;28;19925;-73
2022/02/02 06:44:21;;;;;;;;;;;7.90;99.90;;;;;;8352527;28;20016;-73
2022/02/02 06:48:22;;;;;;;;;;;7.80;99.90;;;;;;8378637;28;19952;-73
2022/02/02 06:52:28;;;;;;;;;;;7.80;99.90;;;;;;8376074;28;20023;-73
2022/02/02 07:00:56;;;;;;;;;;;7.80;99.90;;;;;;8384152;28;20419;-72
2022/02/02 07:09:47;;;;;;;;;;;7.80;99.90;;;;;;8383334;28;19971;-73
2022/02/02 07:18:13;;;;;;;;;;;7.80;99.90;;;;;;8389379;28;19960;-73
2022/02/02 07:22:43;;;;;;;;;;;7.70;99.90;;;;;;8392138;28;19971;-73
2022/02/02 07:27:37;;;;;;;;;;;7.70;99.90;;;;;;8388581;28;19968;-73
2022/02/02 07:31:44;;;;;;;;;;;7.60;99.90;;;;;;8386085;28;19970;-73
2022/02/02 07:36:01;;;;;;;;;;;7.60;99.90;;;;;;8366894;28;20308;-73
2022/02/02 07:40:04;;;;;;;;;;;7.60;99.90;;;;;;8373328;28;19924;-73
2022/02/02 07:44:12;;;;;;;;;;;7.50;99.90;;;;;;8368515;28;19971;-73
2022/02/02 07:48:13;;;;;;;;;;;7.50;99.90;;;;;;8372566;28;19947;-73
2022/02/02 07:52:17;;;;;;;;;;;7.50;99.90;;;;;;8379395;28;20371;-73
2022/02/02 07:56:20;;;;;;;;;;;7.50;99.90;;;;;;8390467;28;19925;-73
2022/02/02 08:00:23;;;;;;;;;;;7.50;99.90;;;;;;8379278;28;19964;-72
2022/02/02 08:04:28;;;;;;;;;;;7.60;99.90;;;;;;8382547;28;20394;-73
2022/02/02 08:08:34;;;;;;;;;;;7.60;99.90;;;;;;8389669;28;19971;-72
2022/02/02 08:12:44;;;;;;;;;;;7.60;99.90;;;;;;8387617;28;19928;-72
2022/02/02 08:16:45;;;;;;;;;;;7.60;99.90;;;;;;8384298;28;19924;-72
2022/02/02 08:20:48;;;;;;;;;;;7.70;99.90;;;;;;8369565;28;19925;-73
2022/02/02 08:24:49;;;;;;;;;;;7.70;99.90;;;;;;8386190;28;19975;-72
2022/02/02 08:28:56;;;;;;;;;;;7.80;99.90;;;;;;8382822;28;20336;-72
2022/02/02 08:33:00;;;;;;;;;;;7.80;99.90;;;;;;8389233;28;20023;-72
2022/02/02 08:37:03;;;;;;;;;;;7.90;99.90;;;;;;8390517;28;19960;-72
2022/02/02 08:41:12;;;;;;;;;;;8.00;99.90;;;;;;8362604;28;20027;-72
2022/02/02 08:45:21;;;;;;;;;;;8.10;99.90;;;;;;8391589;28;19987;-73
2022/02/02 08:49:23;;;;;;;;;;;8.10;99.90;;;;;;8383494;28;19925;-73
2022/02/02 08:57:42;;;;;;;;;;;8.30;99.90;;;;;;8388247;28;19924;-73
2022/02/02 09:01:44;;;;;;;;;;;8.30;99.90;;;;;;8365362;28;19928;-72
2022/02/02 09:05:46;;;;;;;;;;;8.50;99.90;;;;;;8373421;28;19936;-73
2022/02/02 09:35:46;;;;;;;;;;;9.10;99.90;;;;;;8389683;28;19932;-73
2022/02/02 09:39:55;;;;;;;;;;;9.40;99.90;;;;;;8383340;28;19975;-73
2022/02/02 09:44:00;;;;;;;;;;;9.60;99.90;;;;;;8390926;28;19948;-73
2022/02/02 09:48:11;;;;;;;;;;;9.90;99.90;;;;;;8390643;28;19925;-72
2022/02/02 09:52:20;;;;;;;;;;;10.00;99.90;;;;;;8394270;28;19924;-73
2022/02/02 10:01:17;;;;;;;;;;;10.20;99.90;;;;;;8384259;28;19924;-73
2022/02/02 10:10:05;;;;;;;;;;;10.50;99.90;;;;;;8389581;28;20449;-73
2022/02/02 10:14:18;;;;;;;;;;;10.40;99.90;;;;;;8366384;28;19952;-73
2022/02/02 10:18:26;;;;;;;;;;;10.60;99.90;;;;;;8388480;28;20051;-73
2022/02/02 10:22:29;;;;;;;;;;;10.60;99.90;;;;;;8388954;28;19928;-73
2022/02/02 10:26:31;;;;;;;;;;;10.50;99.90;;;;;;8391151;28;19964;-73
2022/02/02 10:30:33;;;;;;;;;;;10.50;99.90;;;;;;8371889;28;20355;-73
2022/02/02 10:34:40;;;;;;;;;;;10.80;99.90;;;;;;8394353;28;19978;-73
2022/02/02 10:38:50;;;;;;;;;;;11.10;99.90;;;;;;8371555;28;19924;-73
2022/02/02 10:42:51;;;;;;;;;;;11.40;99.90;;;;;;8392087;28;19924;-73
2022/02/02 10:47:02;;;;;;;;;;;11.80;99.90;;;;;;8375619;28;20078;-73
2022/02/02 10:51:22;;;;;;;;;;;12.10;99.90;;;;;;8390965;28;19929;-73
2022/02/02 11:08:15;;;;;;;;;;;12.70;99.90;;;;;;8392472;28;19924;-73
2022/02/02 11:12:19;;;;;;;;;;;13.00;99.90;;;;;;8372697;28;19924;-73
2022/02/02 11:16:23;;;;;;;;;;;13.40;99.90;;;;;;8388129;28;19968;-73
2022/02/02 11:20:25;;;;;;;;;;;13.50;99.90;;;;;;8378341;28;20007;-73
2022/02/02 11:24:35;;;;;;;;;;;13.60;99.90;;;;;;8391319;28;19975;-73
2022/02/02 11:28:37;;;;;;;;;;;13.60;99.90;;;;;;8389592;28;20274;-73
2022/02/02 11:32:43;;;;;;;;;;;13.20;99.90;;;;;;8386155;28;20372;-73
2022/02/02 11:37:05;;;;;;;;;;;12.90;99.90;;;;;;8371729;28;19924;-73
2022/02/02 11:41:11;;;;;;;;;;;12.80;99.90;;;;;;8374055;28;19928;-73
2022/02/02 11:45:32;;;;;;;;;;;12.60;99.90;;;;;;8373868;28;19932;-73
2022/02/02 11:49:44;;;;;;;;;;;12.90;99.90;;;;;;8374950;28;19960;-73
2022/02/02 11:53:49;;;;;;;;;;;13.30;99.90;;;;;;8381861;28;19929;-73
2022/02/02 11:58:00;;;;;;;;;;;13.70;99.90;;;;;;8366923;28;19979;-73
2022/02/02 12:02:14;;;;;;;;;;;14.00;99.90;;;;;;8385747;28;20283;-73
2022/02/02 12:10:58;;;;;;;;;;;14.80;99.90;;;;;;8388287;28;19928;-73
2022/02/02 12:20:17;;;;;;;;;;;15.60;99.90;;;;;;8388143;28;20284;-73
2022/02/02 12:49:42;;;;;;;;;;;15.30;99.90;;;;;;8386293;28;19925;-73
2022/02/02 12:54:13;;;;;;;;;;;15.30;99.90;;;;;;8371856;28;20249;-73
2022/02/02 12:58:25;;;;;;;;;;;15.70;99.90;;;;;;8387431;28;20078;-73
2022/02/02 13:02:26;;;;;;;;;;;16.20;99.90;;;;;;8374092;28;19980;-73
2022/02/02 13:06:38;;;;;;;;;;;16.60;99.90;;;;;;8383015;28;19967;-73
2022/02/02 13:10:39;;;;;;;;;;;17.20;99.90;;;;;;8371735;28;20022;-73
2022/02/02 13:14:57;;;;;;;;;;;17.80;99.90;;;;;;8384610;28;19939;-73
2022/02/02 13:19:12;;;;;;;;;;;18.30;99.90;;;;;;8387016;28;20382;-73
2022/02/02 13:23:25;;;;;;;;;;;19.00;99.90;;;;;;8363427;28;20332;-73
2022/02/02 13:27:31;;;;;;;;;;;19.00;99.90;;;;;;8386830;28;20341;-73
2022/02/02 13:31:43;;;;;;;;;;;18.50;99.90;;;;;;8369662;28;19963;-73
2022/02/02 13:35:59;;;;;;;;;;;17.60;99.90;;;;;;8367631;28;19964;-73
2022/02/02 13:44:36;;;;;;;;;;;16.40;99.90;;;;;;8385072;28;20300;-73
2022/02/02 13:53:07;;;;;;;;;;;15.80;99.90;;;;;;8390657;28;19950;-73
2022/02/02 14:10:28;;;;;;;;;;;15.60;99.90;;;;;;8381252;28;19924;-73
2022/02/02 14:32:18;;;;;;;;;;;15.20;99.90;;;;;;8389159;28;19964;-73
2022/02/02 14:36:41;;;;;;;;;;;15.00;99.90;;;;;;8392105;28;19928;-73
2022/02/02 14:40:57;;;;;;;;;;;14.80;99.90;;;;;;8391386;28;19968;-73
2022/02/02 14:45:06;;;;;;;;;;;14.50;99.90;;;;;;8392278;28;19925;-73
2022/02/02 14:49:18;;;;;;;;;;;14.40;99.90;;;;;;8386231;28;19954;-74
2022/02/02 14:53:29;;;;;;;;;;;14.40;99.90;;;;;;8370947;28;20363;-73
2022/02/02 15:05:33;;;;;;;;;;;14.70;99.90;;;;;;8375672;28;19956;-73
2022/02/02 15:28:45;;;;;;;;;;;13.80;99.90;;;;;;8380196;28;20261;-73
2022/02/02 15:32:48;;;;;;;;;;;13.60;99.90;;;;;;8366207;28;20393;-73
2022/02/02 15:41:18;;;;;;;;;;;13.00;99.90;;;;;;8383835;28;19927;-73
2022/02/02 15:58:26;;;;;;;;;;;12.40;99.90;;;;;;8360632;28;19928;-73
2022/02/02 16:06:44;;;;;;;;;;;12.20;99.90;;;;;;8357940;28;20395;-73
2022/02/02 16:15:16;;;;;;;;;;;12.10;99.90;;;;;;8360480;28;20404;-73
2022/02/02 16:37:07;;;;;;;;;;;11.70;99.90;;;;;;8363674;28;20010;-73
2022/02/02 16:42:56;;;;;;;;;;;11.60;99.90;;;;;;8362306;28;19921;-73
2022/02/02 16:45:31;;;;;;;;;;;11.50;99.90;;;;;;8358724;28;20392;-73
2022/02/02 16:49:32;;;;;;;;;;;11.50;99.90;;;;;;8359452;28;19959;-73
2022/02/02 16:53:42;;;;;;;;;;;11.50;99.90;;;;;;8359610;28;20024;-73
2022/02/02 16:58:14;;;;;;;;;;;11.40;99.90;;;;;;8354216;28;19928;-75
2022/02/02 17:36:34;;;;;;;;;;;10.70;99.90;;;;;;8357795;28;20023;-73
2022/02/02 17:40:54;;;;;;;;;;;10.70;99.90;;;;;;8358660;28;19925;-72
2022/02/02 18:19:06;;;;;;;;;;;10.30;99.90;;;;;;8363653;28;19971;-73
2022/02/02 18:27:19;;;;;;;;;;;10.30;99.90;;;;;;8360911;28;19975;-73
2022/02/02 18:35:24;;;;;;;;;;;10.30;99.90;;;;;;8366601;28;20309;-73
2022/02/02 18:40:49;;;;;;;;;;;10.20;99.90;;;;;;8366174;28;20043;-73
2022/02/02 18:57:09;;;;;;;;;;;10.10;99.90;;;;;;8364337;28;19969;-73
2022/02/02 19:01:23;;;;;;;;;;;10.10;99.90;;;;;;8364371;28;20800;-73
2022/02/02 19:56:52;;;;;;;;;;;9.70;99.90;;;;;;8357225;28;19974;-73
2022/02/02 20:05:20;;;;;;;;;;;9.60;99.90;;;;;;8361388;28;19960;-73
2022/02/02 20:09:50;;;;;;;;;;;9.60;99.90;;;;;;8356840;28;19920;-73
2022/02/02 20:13:48;;;;;;;;;;;9.50;99.90;;;;;;8362320;28;19999;-72
2022/02/02 20:17:51;;;;;;;;;;;9.50;99.90;;;;;;8358184;28;19972;-73
2022/02/02 20:21:55;;;;;;;;;;;9.50;99.90;;;;;;8358861;28;19967;-73
2022/02/02 20:25:57;;;;;;;;;;;9.40;99.90;;;;;;8338495;28;24354;-73
2022/02/02 20:29:59;;;;;;;;;;;9.40;99.90;;;;;;8338428;28;20011;-73
2022/02/02 20:34:01;;;;;;;;;;;9.40;99.90;;;;;;8358986;28;19928;-73
2022/02/02 20:38:02;;;;;;;;;;;9.30;99.90;;;;;;8360926;28;19955;-73
2022/02/02 20:42:06;;;;;;;;;;;9.40;99.90;;;;;;8338834;28;19959;-73
2022/02/02 21:03:30;;;;;;;;;;;9.40;99.90;;;;;;8360296;28;19924;-72
2022/02/02 21:07:54;;;;;;;;;;;9.30;99.90;;;;;;8361955;28;20382;-73
2022/02/02 21:16:04;;;;;;;;;;;9.30;99.90;;;;;;8365380;28;19994;-74
2022/02/02 21:20:17;;;;;;;;;;;9.30;99.90;;;;;;8350984;28;19930;-73
2022/02/02 21:24:44;;;;;;;;;;;9.20;99.90;;;;;;8355499;28;19974;-73
2022/02/02 21:28:40;;;;;;;;;;;9.20;99.90;;;;;;8358183;28;20431;-73
2022/02/02 21:32:42;;;;;;;;;;;9.20;99.90;;;;;;8355957;28;20390;-73
2022/02/02 21:36:44;;;;;;;;;;;9.20;99.90;;;;;;8352858;28;20054;-73
2022/02/02 21:40:50;;;;;;;;;;;9.20;99.90;;;;;;8360539;28;19975;-72
2022/02/02 21:44:52;;;;;;;;;;;9.20;99.90;;;;;;8363932;28;20066;-73
2022/02/02 21:48:55;;;;;;;;;;;9.20;99.90;;;;;;8360739;28;20003;-73
2022/02/02 21:52:56;;;;;;;;;;;9.20;99.90;;;;;;8358862;28;20019;-73
2022/02/02 21:56:58;;;;;;;;;;;9.20;99.90;;;;;;8364041;28;19935;-73
2022/02/02 22:01:00;;;;;;;;;;;9.10;99.90;;;;;;8346831;28;20439;-73
2022/02/02 22:05:03;;;;;;;;;;;9.10;99.90;;;;;;8383407;28;19967;-73
2022/02/02 22:09:05;;;;;;;;;;;9.10;99.90;;;;;;8384490;28;19951;-73
2022/02/02 22:13:08;;;;;;;;;;;9.00;99.90;;;;;;8391838;28;19924;-73
2022/02/02 22:17:10;;;;;;;;;;;9.00;99.90;;;;;;8371337;28;19959;-73
2022/02/02 22:21:11;;;;;;;;;;;9.00;99.90;;;;;;8389008;28;19955;-73
2022/02/02 22:25:13;;;;;;;;;;;9.00;99.90;;;;;;8372195;28;20014;-73
2022/02/02 22:29:15;;;;;;;;;;;9.00;99.90;;;;;;8371584;28;20324;-73
2022/02/02 22:33:16;;;;;;;;;;;9.00;99.90;;;;;;8371201;28;19971;-73
2022/02/02 22:37:18;;;;;;;;;;;9.00;99.90;;;;;;8397605;28;19952;-73
2022/02/02 22:41:20;;;;;;;;;;;9.00;99.90;;;;;;8394212;28;19927;-73
2022/02/02 22:45:21;;;;;;;;;;;8.90;99.90;;;;;;8375764;28;19929;-72
2022/02/02 22:49:23;;;;;;;;;;;8.90;99.90;;;;;;8388111;28;20367;-73
2022/02/02 22:53:25;;;;;;;;;;;8.90;99.90;;;;;;8375471;28;19928;-73
2022/02/02 22:57:27;;;;;;;;;;;8.90;99.90;;;;;;8388275;28;20025;-73
2022/02/02 23:01:31;;;;;;;;;;;8.90;99.90;;;;;;8394539;28;19962;-73
2022/02/02 23:09:38;;;;;;;;;;;8.90;99.90;;;;;;8382331;28;20075;-73
2022/02/02 23:13:41;;;;;;;;;;;8.90;99.90;;;;;;8390362;28;20011;-73
2022/02/02 23:17:43;;;;;;;;;;;8.90;99.90;;;;;;8392016;28;19966;-73
2022/02/02 23:21:47;;;;;;;;;;;8.80;99.90;;;;;;8388493;28;19921;-73
2022/02/02 23:25:49;;;;;;;;;;;8.80;99.90;;;;;;8371326;28;19963;-73
2022/02/02 23:29:53;;;;;;;;;;;8.80;99.90;;;;;;8388895;28;19925;-73
2022/02/02 23:33:55;;;;;;;;;;;8.80;99.90;;;;;;8371968;28;19928;-73
2022/02/02 23:37:57;;;;;;;;;;;8.80;99.90;;;;;;8399829;28;19975;-73
2022/02/02 23:42:18;;;;;;;;;;;8.80;99.90;;;;;;8387463;28;20090;-73
2022/02/02 23:46:26;;;;;;;;;;;8.80;99.90;;;;;;8390639;28;20026;-73
2022/02/02 23:50:29;;;;;;;;;;;8.80;99.90;;;;;;8370494;28;19963;-73
2022/02/02 23:54:32;;;;;;;;;;;8.80;99.90;;;;;;8388638;28;19928;-73
2022/02/02 23:58:40;;;;;;;;;;;8.80;99.90;;;;;;8389518;28;19920;-73
